createdAt,value
2019-05-03T00:02:34.616Z,97391.97
2019-05-03T00:05:24.788Z,97395.47
2019-05-03T00:07:57.629Z,97394.52
2019-05-03T00:10:27.989Z,97391.38
2019-05-03T00:12:57.916Z,97393.19
2019-05-03T00:15:46.426Z,97392.35
2019-05-03T00:18:16.749Z,97390.27
2019-05-03T00:20:46.636Z,97383.42
2019-05-03T00:23:16.865Z,97384.28
2019-05-03T00:25:47.010Z,97388.84
2019-05-03T00:28:17.109Z,97383.05
2019-05-03T00:30:47.649Z,97380.09
2019-05-03T00:33:17.654Z,97383.78
2019-05-03T00:36:06.545Z,97378.67
2019-05-03T00:38:36.581Z,97381.14
2019-05-03T00:41:06.565Z,97380.58
2019-05-03T00:43:36.741Z,97387.59
2019-05-03T00:46:06.988Z,97376.45
2019-05-03T00:48:36.950Z,97386.58
2019-05-03T00:51:06.912Z,97378.48
2019-05-03T00:53:36.846Z,97375.56
2019-05-03T00:56:06.866Z,97379.31
2019-05-03T00:58:50.409Z,97369.72
2019-05-03T01:01:22.405Z,97372.33
2019-05-03T01:03:52.814Z,97370.59
2019-05-03T01:06:23.394Z,97373.08
2019-05-03T01:08:53.732Z,97369.11
2019-05-03T01:11:23.696Z,97375.28
2019-05-03T01:13:54.030Z,97373.54
2019-05-03T01:16:25.157Z,97374.01
2019-05-03T01:18:55.162Z,97371.16
2019-05-03T01:21:25.480Z,97375.47
2019-05-03T01:23:55.402Z,97374.14
2019-05-03T01:26:25.271Z,97374.97
2019-05-03T01:28:55.188Z,97371.46
2019-05-03T01:31:25.090Z,97375.22
2019-05-03T01:33:55.077Z,97373.82
2019-05-03T01:36:25.055Z,97378.02
2019-05-03T01:38:55.036Z,97379.56
2019-05-03T01:41:25.149Z,97379.13
2019-05-03T01:43:55.312Z,97379.20
2019-05-03T01:46:25.232Z,97377.36
2019-05-03T01:49:04.195Z,97377.40
2019-05-03T01:51:45.434Z,97379.37
2019-05-03T01:54:15.546Z,97375.89
2019-05-03T01:56:55.981Z,97382.25
2019-05-03T01:59:17.319Z,97377.36
2019-05-03T02:01:56.884Z,97376.95
2019-05-03T02:04:49.067Z,97376.83
2019-05-03T02:07:18.956Z,97373.61
2019-05-03T02:09:48.858Z,97386.34
2019-05-03T02:12:19.323Z,97381.38
2019-05-03T02:14:49.405Z,97382.34
2019-05-03T02:17:19.309Z,97382.14
2019-05-03T02:19:49.231Z,97377.86
2019-05-03T02:22:19.124Z,97386.08
2019-05-03T02:24:49.051Z,97384.41
2019-05-03T02:27:18.940Z,97377.27
2019-05-03T02:29:48.868Z,97383.12
2019-05-03T02:32:18.783Z,97386.44
2019-05-03T02:34:48.715Z,97386.73
2019-05-03T02:37:18.607Z,97384.63
2019-05-03T02:39:55.900Z,97383.78
2019-05-03T02:42:26.759Z,97383.31
2019-05-03T02:44:57.908Z,97382.06
2019-05-03T02:47:39.506Z,97390.48
2019-05-03T02:50:16.467Z,97386.36
2019-05-03T02:52:45.722Z,97387.64
2019-05-03T02:55:16.406Z,97389.41
2019-05-03T02:57:46.931Z,97390.00
2019-05-03T03:00:21.930Z,97392.43
2019-05-03T03:02:52.184Z,97391.75
2019-05-03T03:05:24.930Z,97389.77
2019-05-03T03:07:55.895Z,97388.59
2019-05-03T03:10:27.966Z,97386.55
2019-05-03T03:13:00.530Z,97397.13
2019-05-03T03:15:32.740Z,97394.86
2019-05-03T03:18:02.878Z,97398.48
2019-05-03T03:20:35.840Z,97396.92
2019-05-03T03:23:06.801Z,97398.69
2019-05-03T03:25:40.329Z,97398.69
2019-05-03T03:28:15.796Z,97396.92
2019-05-03T03:31:28.281Z,97395.25
2019-05-03T03:34:07.639Z,97400.16
2019-05-03T03:36:58.411Z,97400.75
2019-05-03T03:39:17.315Z,97399.27
2019-05-03T03:41:49.209Z,97397.71
2019-05-03T03:44:21.652Z,97396.44
2019-05-03T03:46:52.006Z,97396.84
2019-05-03T03:49:22.862Z,97398.20
2019-05-03T03:51:56.112Z,97398.60
2019-05-03T03:54:26.032Z,97394.95
2019-05-03T03:57:03.854Z,97397.80
2019-05-03T03:59:28.591Z,97406.59
2019-05-03T04:01:58.865Z,97404.17
2019-05-03T04:04:29.434Z,97413.16
2019-05-03T04:07:01.406Z,97409.84
2019-05-03T04:09:31.975Z,97413.16
2019-05-03T04:12:02.607Z,97416.98
2019-05-03T04:14:40.171Z,97423.04
2019-05-03T04:17:29.253Z,97422.27
2019-05-03T04:19:59.745Z,97423.61
2019-05-03T04:22:29.785Z,97424.20
2019-05-03T04:24:59.831Z,97427.64
2019-05-03T04:27:29.841Z,97430.86
2019-05-03T04:30:00.244Z,97437.79
2019-05-03T04:32:30.458Z,97438.19
2019-05-03T04:35:00.629Z,97439.67
2019-05-03T04:37:30.764Z,97439.45
2019-05-03T04:40:00.781Z,97440.44
2019-05-03T04:42:30.833Z,97445.22
2019-05-03T04:45:00.724Z,97450.11
2019-05-03T04:47:30.621Z,97449.35
2019-05-03T04:50:00.560Z,97445.92
2019-05-03T04:52:30.517Z,97446.81
2019-05-03T04:55:01.072Z,97449.23
2019-05-03T04:57:42.024Z,97449.05
2019-05-03T05:00:06.003Z,97456.58
2019-05-03T05:02:35.617Z,97454.72
2019-05-03T05:05:06.339Z,97460.00
2019-05-03T05:07:45.813Z,97456.19
2019-05-03T05:10:16.912Z,97456.39
2019-05-03T05:12:46.921Z,97458.23
2019-05-03T05:15:18.103Z,97465.85
2019-05-03T05:18:01.991Z,97462.52
2019-05-03T05:20:55.500Z,97465.85
2019-05-03T05:23:26.118Z,97469.58
2019-05-03T05:26:05.406Z,97474.95
2019-05-03T05:28:44.738Z,97474.27
2019-05-03T05:31:15.242Z,97479.34
2019-05-03T05:33:45.231Z,97479.16
2019-05-03T05:36:15.408Z,97481.91
2019-05-03T05:38:45.648Z,97486.40
2019-05-03T05:41:15.741Z,97487.19
2019-05-03T05:43:45.684Z,97484.91
2019-05-03T05:46:16.770Z,97488.42
2019-05-03T05:48:50.683Z,97491.77
2019-05-03T05:51:20.706Z,97495.30
2019-05-03T05:53:50.699Z,97497.59
2019-05-03T05:56:44.477Z,97501.91
2019-05-03T05:59:24.786Z,97507.81
2019-05-03T06:01:58.813Z,97503.49
2019-05-03T06:04:28.804Z,97509.29
2019-05-03T06:07:35.547Z,97520.94
2019-05-03T06:10:14.114Z,97521.98
2019-05-03T06:12:58.558Z,97528.66
2019-05-03T06:15:41.740Z,97537.44
2019-05-03T06:18:17.582Z,97540.91
2019-05-03T06:21:12.578Z,97542.18
2019-05-03T06:23:48.449Z,97544.38
2019-05-03T06:26:36.173Z,97552.45
2019-05-03T06:29:06.392Z,97552.92
2019-05-03T06:31:49.073Z,97556.73
2019-05-03T06:34:19.032Z,97556.73
2019-05-03T06:36:51.492Z,97559.02
2019-05-03T06:39:21.479Z,97563.50
2019-05-03T06:41:51.413Z,97562.42
2019-05-03T06:44:24.842Z,97567.80
2019-05-03T06:46:55.118Z,97568.55
2019-05-03T06:49:25.558Z,97573.00
2019-05-03T06:51:55.549Z,97579.09
2019-05-03T06:54:29.757Z,97587.22
2019-05-03T06:57:00.093Z,97582.46
2019-05-03T06:59:40.727Z,97580.47
2019-05-03T07:02:44.876Z,97581.66
2019-05-03T07:05:26.563Z,97579.89
2019-05-03T07:08:21.335Z,97584.81
2019-05-03T07:10:54.937Z,97583.39
2019-05-03T07:13:25.441Z,97579.58
2019-05-03T07:15:56.016Z,97579.58
2019-05-03T07:18:26.031Z,97587.66
2019-05-03T07:20:57.857Z,97591.09
2019-05-03T07:23:27.835Z,97590.88
2019-05-03T07:25:58.288Z,97598.72
2019-05-03T07:28:28.273Z,97599.55
2019-05-03T07:30:58.205Z,97604.45
2019-05-03T07:33:34.726Z,97613.33
2019-05-03T07:36:05.618Z,97613.30
2019-05-03T07:38:35.875Z,97620.31
2019-05-03T07:41:05.898Z,97615.45
2019-05-03T07:43:36.171Z,97617.78
2019-05-03T07:46:06.587Z,97613.33
2019-05-03T07:48:36.591Z,97612.41
2019-05-03T07:51:06.834Z,97615.44
2019-05-03T07:53:36.755Z,97608.57
2019-05-03T07:56:14.933Z,97617.39
2019-05-03T07:58:59.298Z,97610.28
2019-05-03T08:01:26.378Z,97616.13
2019-05-03T08:03:56.426Z,97617.02
2019-05-03T08:06:26.388Z,97608.06
2019-05-03T08:08:56.511Z,97615.94
2019-05-03T08:11:26.535Z,97615.70
2019-05-03T08:13:57.095Z,97617.31
2019-05-03T08:16:27.015Z,97622.41
2019-05-03T08:18:56.913Z,97617.53
2019-05-03T08:21:27.088Z,97615.45
2019-05-03T08:23:57.049Z,97613.31
2019-05-03T08:26:26.998Z,97607.73
2019-05-03T08:28:56.918Z,97618.11
2019-05-03T08:31:49.097Z,97619.78
2019-05-03T08:34:30.937Z,97619.46
2019-05-03T08:37:19.887Z,97620.70
2019-05-03T08:39:49.787Z,97616.74
2019-05-03T08:42:25.358Z,97620.84
2019-05-03T08:44:55.540Z,97614.14
2019-05-03T08:47:25.673Z,97614.56
2019-05-03T08:49:56.281Z,97622.97
2019-05-03T08:52:26.250Z,97620.25
2019-05-03T08:54:56.161Z,97620.02
2019-05-03T08:57:26.194Z,97621.70
2019-05-03T08:59:56.086Z,97629.80
2019-05-03T09:02:26.253Z,97621.15
2019-05-03T09:04:56.294Z,97618.68
2019-05-03T09:07:26.229Z,97626.05
2019-05-03T09:10:01.281Z,97632.14
2019-05-03T09:12:49.060Z,97628.59
2019-05-03T09:15:21.587Z,97633.74
2019-05-03T09:17:55.112Z,97630.50
2019-05-03T09:20:25.251Z,97626.68
2019-05-03T09:22:55.218Z,97628.05
2019-05-03T09:25:25.544Z,97630.25
2019-05-03T09:27:55.572Z,97635.22
2019-05-03T09:30:25.603Z,97638.55
2019-05-03T09:32:55.871Z,97623.73
2019-05-03T09:35:32.048Z,97625.55
2019-05-03T09:37:57.960Z,97624.80
2019-05-03T09:40:27.850Z,97625.43
2019-05-03T09:42:57.778Z,97627.29
2019-05-03T09:45:27.821Z,97633.06
2019-05-03T09:47:57.749Z,97629.92
2019-05-03T09:50:27.773Z,97623.91
2019-05-03T09:52:57.762Z,97622.37
2019-05-03T09:55:37.575Z,97619.20
2019-05-03T09:58:07.899Z,97609.36
2019-05-03T10:00:38.013Z,97607.06
2019-05-03T10:03:08.037Z,97615.09
2019-05-03T10:05:38.079Z,97615.37
2019-05-03T10:08:08.068Z,97614.39
2019-05-03T10:10:57.609Z,97615.77
2019-05-03T10:13:27.541Z,97610.02
2019-05-03T10:15:57.439Z,97614.59
2019-05-03T10:18:27.721Z,97617.99
2019-05-03T10:20:57.703Z,97614.45
2019-05-03T10:23:40.412Z,97616.52
2019-05-03T10:26:10.895Z,97613.95
2019-05-03T10:28:40.957Z,97607.91
2019-05-03T10:31:11.092Z,97614.48
2019-05-03T10:33:55.620Z,97613.09
2019-05-03T10:36:25.569Z,97602.39
2019-05-03T10:38:55.767Z,97607.66
2019-05-03T10:41:25.800Z,97596.26
2019-05-03T10:43:55.888Z,97591.97
2019-05-03T10:46:25.784Z,97601.37
2019-05-03T10:48:56.064Z,97603.72
2019-05-03T10:51:28.449Z,97601.20
2019-05-03T10:54:00.087Z,97597.03
2019-05-03T10:56:50.655Z,97603.17
2019-05-03T10:59:21.910Z,97595.02
2019-05-03T11:02:24.841Z,97597.02
2019-05-03T11:04:54.971Z,97596.44
2019-05-03T11:07:25.621Z,97601.30
2019-05-03T11:09:55.819Z,97595.30
2019-05-03T11:12:27.210Z,97593.48
2019-05-03T11:14:57.269Z,97603.83
2019-05-03T11:17:27.220Z,97587.28
2019-05-03T11:19:57.225Z,97590.38
2019-05-03T11:22:27.137Z,97588.20
2019-05-03T11:24:57.078Z,97590.40
2019-05-03T11:27:45.894Z,97589.62
2019-05-03T11:30:17.367Z,97588.12
2019-05-03T11:32:52.829Z,97589.19
2019-05-03T11:35:35.098Z,97585.59
2019-05-03T11:38:11.540Z,97577.77
2019-05-03T11:40:41.492Z,97572.63
2019-05-03T11:43:11.466Z,97577.31
2019-05-03T11:45:41.460Z,97572.73
2019-05-03T11:48:11.371Z,97573.53
2019-05-03T11:50:41.310Z,97567.73
2019-05-03T11:53:11.798Z,97571.84
2019-05-03T11:55:41.745Z,97570.73
2019-05-03T11:58:19.001Z,97563.34
2019-05-03T12:01:08.187Z,97559.27
2019-05-03T12:03:31.455Z,97556.16
2019-05-03T12:06:01.469Z,97559.56
2019-05-03T12:08:31.465Z,97551.91
2019-05-03T12:11:01.847Z,97557.00
2019-05-03T12:13:32.454Z,97549.80
2019-05-03T12:16:14.261Z,97555.80
2019-05-03T12:18:49.323Z,97553.58
2019-05-03T12:21:08.960Z,97552.98
2019-05-03T12:23:39.825Z,97558.06
2019-05-03T12:26:13.469Z,97553.66
2019-05-03T12:28:41.911Z,97551.05
2019-05-03T12:31:25.442Z,97551.80
2019-05-03T12:33:45.932Z,97553.44
2019-05-03T12:36:15.709Z,97547.19
2019-05-03T12:38:45.629Z,97542.30
2019-05-03T12:41:15.587Z,97544.63
2019-05-03T12:43:45.500Z,97541.98
2019-05-03T12:46:16.860Z,97534.06
2019-05-03T12:48:48.471Z,97526.91
2019-05-03T12:51:18.504Z,97531.39
2019-05-03T12:53:49.091Z,97527.32
2019-05-03T12:56:23.867Z,97527.25
2019-05-03T12:59:02.416Z,97523.78
2019-05-03T13:02:09.452Z,97523.10
2019-05-03T13:04:39.962Z,97516.16
2019-05-03T13:07:25.539Z,97510.00
2019-05-03T13:09:55.487Z,97501.97
2019-05-03T13:12:27.224Z,97502.62
2019-05-03T13:14:57.121Z,97497.09
2019-05-03T13:17:36.896Z,97486.66
2019-05-03T13:20:09.778Z,97484.25
2019-05-03T13:22:39.872Z,97482.81
2019-05-03T13:25:11.759Z,97479.99
2019-05-03T13:27:41.751Z,97483.76
2019-05-03T13:30:15.836Z,97476.64
2019-05-03T13:32:45.879Z,97476.47
2019-05-03T13:35:16.116Z,97472.77
2019-05-03T13:37:46.838Z,97479.93
2019-05-03T13:40:16.988Z,97468.69
2019-05-03T13:42:57.655Z,97471.06
2019-05-03T13:45:19.243Z,97463.39
2019-05-03T13:47:49.259Z,97459.17
2019-05-03T13:50:19.352Z,97452.05
2019-05-03T13:52:49.512Z,97458.19
2019-05-03T13:55:19.532Z,97458.25
2019-05-03T13:57:49.541Z,97456.94
2019-05-03T14:00:19.695Z,97447.95
2019-05-03T14:02:49.726Z,97451.23
2019-05-03T14:05:19.704Z,97444.55
2019-05-03T14:07:49.620Z,97440.58
2019-05-03T14:10:20.020Z,97447.30
2019-05-03T14:12:49.963Z,97442.39
2019-05-03T14:15:20.128Z,97441.92
2019-05-03T14:17:50.054Z,97439.30
2019-05-03T14:20:29.934Z,97438.81
2019-05-03T14:22:59.893Z,97436.16
2019-05-03T14:25:29.933Z,97439.94
2019-05-03T14:28:00.122Z,97440.19
2019-05-03T14:30:30.341Z,97435.38
2019-05-03T14:33:00.289Z,97432.85
2019-05-03T14:35:30.205Z,97432.36
2019-05-03T14:38:00.201Z,97435.62
2019-05-03T14:40:30.209Z,97429.97
2019-05-03T14:43:00.144Z,97426.23
2019-05-03T14:45:30.068Z,97425.81
2019-05-03T14:48:00.194Z,97431.63
2019-05-03T14:50:31.069Z,97429.75
2019-05-03T14:53:01.190Z,97425.02
2019-05-03T14:55:45.342Z,97432.70
2019-05-03T14:58:35.297Z,97431.66
2019-05-03T15:01:12.082Z,97430.59
2019-05-03T15:03:42.059Z,97416.84
2019-05-03T15:06:12.033Z,97414.51
2019-05-03T15:08:42.269Z,97419.88
2019-05-03T15:11:12.186Z,97423.68
2019-05-03T15:13:42.147Z,97414.77
2019-05-03T15:16:14.430Z,97418.61
2019-05-03T15:18:45.380Z,97422.16
2019-05-03T15:21:15.315Z,97422.58
2019-05-03T15:23:45.449Z,97422.20
2019-05-03T15:26:15.347Z,97420.47
2019-05-03T15:28:45.437Z,97423.86
2019-05-03T15:31:15.399Z,97429.40
2019-05-03T15:33:45.329Z,97423.95
2019-05-03T15:36:15.526Z,97428.34
2019-05-03T15:38:46.139Z,97425.00
2019-05-03T15:41:16.063Z,97435.33
2019-05-03T15:43:54.723Z,97432.63
2019-05-03T15:46:45.651Z,97434.11
2019-05-03T15:49:15.941Z,97427.02
2019-05-03T15:51:45.846Z,97435.77
2019-05-03T15:54:15.849Z,97437.25
2019-05-03T15:56:45.820Z,97436.71
2019-05-03T15:59:15.738Z,97434.87
2019-05-03T16:01:46.381Z,97436.56
2019-05-03T16:04:16.484Z,97438.84
2019-05-03T16:06:46.386Z,97436.35
2019-05-03T16:09:16.503Z,97439.45
2019-05-03T16:11:46.397Z,97432.59
2019-05-03T16:14:16.316Z,97442.17
2019-05-03T16:16:46.218Z,97431.55
2019-05-03T16:19:16.199Z,97435.09
2019-05-03T16:21:46.142Z,97431.43
2019-05-03T16:24:16.126Z,97440.28
2019-05-03T16:27:05.018Z,97438.71
2019-05-03T16:29:35.335Z,97436.31
2019-05-03T16:32:05.874Z,97436.72
2019-05-03T16:34:35.851Z,97439.14
2019-05-03T16:37:05.865Z,97435.30
2019-05-03T16:39:36.412Z,97423.78
2019-05-03T16:42:06.932Z,97432.34
2019-05-03T16:44:37.057Z,97437.97
2019-05-03T16:47:07.310Z,97438.52
2019-05-03T16:49:37.315Z,97446.73
2019-05-03T16:52:07.363Z,97445.06
2019-05-03T16:54:37.291Z,97444.07
2019-05-03T16:57:07.257Z,97446.81
2019-05-03T16:59:37.375Z,97448.11
2019-05-03T17:02:07.427Z,97445.78
2019-05-03T17:04:45.075Z,97442.81
2019-05-03T17:07:35.382Z,97438.05
2019-05-03T17:10:15.353Z,97449.27
2019-05-03T17:12:52.264Z,97447.16
2019-05-03T17:15:22.390Z,97449.97
2019-05-03T17:17:52.485Z,97449.63
2019-05-03T17:20:22.558Z,97451.98
2019-05-03T17:22:52.454Z,97451.34
2019-05-03T17:25:24.406Z,97454.16
2019-05-03T17:27:54.419Z,97453.74
2019-05-03T17:30:32.613Z,97454.77
2019-05-03T17:32:56.203Z,97454.11
2019-05-03T17:35:26.142Z,97458.30
2019-05-03T17:37:56.084Z,97457.67
2019-05-03T17:40:44.324Z,97456.33
2019-05-03T17:43:22.317Z,97458.20
2019-05-03T17:45:54.974Z,97454.77
2019-05-03T17:48:25.143Z,97454.11
2019-05-03T17:50:55.223Z,97453.20
2019-05-03T17:53:47.234Z,97452.70
2019-05-03T17:56:28.478Z,97459.95
2019-05-03T17:59:01.709Z,97459.59
2019-05-03T18:01:49.216Z,97456.37
2019-05-03T18:04:50.047Z,97454.67
2019-05-03T18:07:37.019Z,97459.16
2019-05-03T18:10:07.827Z,97457.03
2019-05-03T18:12:37.772Z,97455.52
2019-05-03T18:15:08.469Z,97452.88
2019-05-03T18:17:39.071Z,97456.83
2019-05-03T18:20:09.144Z,97458.25
2019-05-03T18:22:39.036Z,97454.68
2019-05-03T18:25:09.372Z,97463.64
2019-05-03T18:27:39.261Z,97462.23
2019-05-03T18:30:09.922Z,97470.84
2019-05-03T18:32:39.843Z,97470.55
2019-05-03T18:35:09.933Z,97463.63
2019-05-03T18:37:39.838Z,97466.84
2019-05-03T18:40:10.179Z,97466.93
2019-05-03T18:42:45.211Z,97465.47
2019-05-03T18:45:20.593Z,97471.67
2019-05-03T18:47:50.481Z,97478.20
2019-05-03T18:50:20.576Z,97475.25
2019-05-03T18:52:50.485Z,97476.34
2019-05-03T18:55:20.562Z,97484.86
2019-05-03T18:57:50.601Z,97485.09
2019-05-03T19:00:21.800Z,97484.97
2019-05-03T19:02:51.753Z,97493.03
2019-05-03T19:05:24.309Z,97492.73
2019-05-03T19:08:04.565Z,97496.84
2019-05-03T19:10:44.630Z,97502.41
2019-05-03T19:13:37.263Z,97507.03
2019-05-03T19:16:20.232Z,97510.05
2019-05-03T19:18:50.132Z,97506.29
2019-05-03T19:21:20.083Z,97499.27
2019-05-03T19:23:50.015Z,97502.58
2019-05-03T19:26:20.515Z,97500.82
2019-05-03T19:28:50.504Z,97500.67
2019-05-03T19:31:20.795Z,97500.17
2019-05-03T19:33:50.877Z,97501.37
2019-05-03T19:36:20.792Z,97507.79
2019-05-03T19:38:51.429Z,97511.54
2019-05-03T19:41:21.368Z,97514.69
2019-05-03T19:43:51.272Z,97517.66
2019-05-03T19:46:21.193Z,97514.95
2019-05-03T19:48:51.139Z,97505.19
2019-05-03T19:51:21.013Z,97513.89
2019-05-03T19:53:55.098Z,97508.91
2019-05-03T19:56:25.888Z,97507.33
2019-05-03T19:59:04.661Z,97510.27
2019-05-03T20:01:51.454Z,97516.82
2019-05-03T20:04:40.479Z,97518.38
2019-05-03T20:07:26.268Z,97516.91
2019-05-03T20:09:56.354Z,97516.03
2019-05-03T20:12:26.894Z,97516.13
2019-05-03T20:14:56.923Z,97510.13
2019-05-03T20:17:26.831Z,97516.09
2019-05-03T20:19:56.800Z,97513.58
2019-05-03T20:22:27.050Z,97510.06
2019-05-03T20:24:57.071Z,97509.09
2019-05-03T20:27:27.032Z,97506.75
2019-05-03T20:29:57.194Z,97507.73
2019-05-03T20:32:27.095Z,97508.70
2019-05-03T20:34:57.107Z,97502.23
2019-05-03T20:37:27.675Z,97504.48
2019-05-03T20:39:57.968Z,97504.70
2019-05-03T20:42:45.215Z,97508.81
2019-05-03T20:45:22.361Z,97502.26
2019-05-03T20:47:55.355Z,97506.03
2019-05-03T20:50:25.272Z,97497.89
2019-05-03T20:52:55.167Z,97494.95
2019-05-03T20:55:25.664Z,97500.33
2019-05-03T20:57:55.647Z,97496.02
2019-05-03T21:00:27.138Z,97491.36
2019-05-03T21:02:57.539Z,97495.92
2019-05-03T21:05:31.739Z,97497.28
2019-05-03T21:07:59.315Z,97495.70
2019-05-03T21:10:29.551Z,97502.55
2019-05-03T21:12:59.440Z,97505.94
2019-05-03T21:15:41.772Z,97506.32
2019-05-03T21:18:24.383Z,97501.66
2019-05-03T21:21:14.945Z,97498.61
2019-05-03T21:23:49.368Z,97504.30
2019-05-03T21:26:19.407Z,97493.43
2019-05-03T21:28:49.382Z,97500.07
2019-05-03T21:31:19.375Z,97497.24
2019-05-03T21:33:49.279Z,97492.55
2019-05-03T21:36:19.408Z,97499.50
2019-05-03T21:38:49.498Z,97497.14
2019-05-03T21:41:19.437Z,97495.86
2019-05-03T21:43:49.321Z,97494.96
2019-05-03T21:46:34.971Z,97494.29
2019-05-03T21:49:10.117Z,97495.88
2019-05-03T21:51:40.117Z,97492.63
2019-05-03T21:54:10.037Z,97490.47
2019-05-03T21:56:39.985Z,97485.31
2019-05-03T21:59:09.859Z,97490.40
2019-05-03T22:01:45.425Z,97491.88
2019-05-03T22:04:15.629Z,97495.06
2019-05-03T22:06:45.693Z,97485.86
2019-05-03T22:09:15.578Z,97489.88
2019-05-03T22:11:45.518Z,97484.87
2019-05-03T22:14:21.512Z,97488.50
2019-05-03T22:17:14.874Z,97488.30
2019-05-03T22:19:46.439Z,97481.97
2019-05-03T22:22:55.425Z,97478.13
2019-05-03T22:25:28.542Z,97471.95
2019-05-03T22:27:58.626Z,97470.50
2019-05-03T22:30:28.519Z,97467.96
2019-05-03T22:32:58.438Z,97469.62
2019-05-03T22:35:28.397Z,97460.09
2019-05-03T22:37:58.489Z,97459.12
2019-05-03T22:40:28.449Z,97458.77
2019-05-03T22:42:58.378Z,97461.63
2019-05-03T22:45:28.269Z,97453.51
2019-05-03T22:47:58.188Z,97462.45
2019-05-03T22:50:28.238Z,97451.86
2019-05-03T22:52:58.261Z,97444.42
2019-05-03T22:55:28.204Z,97439.02
2019-05-03T22:57:58.171Z,97432.95
2019-05-03T23:00:28.250Z,97426.66
2019-05-03T23:02:58.174Z,97422.86
2019-05-03T23:05:28.088Z,97420.04
2019-05-03T23:07:58.936Z,97423.70
2019-05-03T23:10:29.073Z,97420.77
2019-05-03T23:12:59.010Z,97418.27
2019-05-03T23:15:29.258Z,97411.48
2019-05-03T23:17:59.198Z,97408.34
2019-05-03T23:20:37.042Z,97399.63
2019-05-03T23:23:07.037Z,97404.19
2019-05-03T23:25:36.937Z,97412.02
2019-05-03T23:28:06.864Z,97407.98
2019-05-03T23:30:36.995Z,97405.02
2019-05-03T23:33:07.232Z,97396.42
2019-05-03T23:35:37.368Z,97396.86
2019-05-03T23:38:07.327Z,97397.05
2019-05-03T23:40:37.452Z,97393.17
2019-05-03T23:43:07.394Z,97393.72
2019-05-03T23:45:37.537Z,97394.59
2019-05-03T23:48:07.928Z,97389.91
2019-05-03T23:50:37.831Z,97379.81
2019-05-03T23:53:07.784Z,97378.66
2019-05-03T23:55:46.362Z,97376.18
2019-05-03T23:58:16.350Z,97370.89
